Time;durP1;ratioP1;P1;durP2;ratioP2;P2;SDS_P1;SDS_P2;PMS_P1;PMS_P2;Temp;Humidity;BMP_temperature;BMP_pressure;BME280_temperature;BME280_humidity;BME280_pressure;Samples;Min_cycle;Max_cycle;Signal;HPM_P1;HPM_P2
2024/01/05 00:00:49;;;;;;;13.27;3.40;;;10.20;93.30;;;;;;5053203;28;20048;-78
2024/01/05 00:03:14;;;;;;;13.38;3.08;;;10.20;93.30;;;;;;5049945;28;20411;-78
2024/01/05 00:05:40;;;;;;;13.85;3.50;;;10.30;93.10;;;;;;5055180;28;20035;-77
2024/01/05 00:08:06;;;;;;;15.73;3.95;;;10.30;93.10;;;;;;5041672;28;20170;-77
2024/01/05 00:10:33;;;;;;;13.98;4.28;;;10.30;92.90;;;;;;5043482;28;20044;-76
2024/01/05 00:12:59;;;;;;;17.67;3.78;;;10.30;92.80;;;;;;5053083;28;20283;-79
2024/01/05 00:15:25;;;;;;;12.40;3.53;;;10.30;92.80;;;;;;5053828;28;20510;-78
2024/01/05 00:17:51;;;;;;;13.68;3.83;;;10.30;92.70;;;;;;5057663;28;20384;-78
2024/01/05 00:20:17;;;;;;;12.68;4.20;;;10.30;92.60;;;;;;5059700;28;20849;-77
2024/01/05 00:22:42;;;;;;;15.27;2.92;;;10.40;92.30;;;;;;5041567;28;20319;-79
2024/01/05 00:25:08;;;;;;;15.35;3.58;;;10.30;92.10;;;;;;5038529;28;20050;-76
2024/01/05 00:27:34;;;;;;;12.75;4.05;;;10.40;92.00;;;;;;5057793;28;20047;-76
2024/01/05 00:30:00;;;;;;;9.80;3.13;;;10.40;91.90;;;;;;5062954;28;20479;-76
2024/01/05 00:32:26;;;;;;;15.25;4.03;;;10.40;91.80;;;;;;5055412;28;20025;-78
2024/01/05 00:34:52;;;;;;;14.73;4.47;;;10.40;91.80;;;;;;5036811;28;20060;-78
2024/01/05 00:37:18;;;;;;;12.10;3.13;;;10.40;91.60;;;;;;5059343;28;20016;-76
2024/01/05 00:39:44;;;;;;;17.27;3.78;;;10.50;91.40;;;;;;5059720;28;20540;-76
2024/01/05 00:42:10;;;;;;;10.50;2.80;;;10.40;91.10;;;;;;5053103;28;20078;-75
2024/01/05 00:44:36;;;;;;;10.75;2.60;;;10.50;91.00;;;;;;5045264;28;20061;-79
2024/01/05 00:47:02;;;;;;;9.43;2.80;;;10.50;90.90;;;;;;5056501;28;20064;-76
2024/01/05 00:49:28;;;;;;;7.70;2.47;;;10.50;90.80;;;;;;5042161;28;20036;-77
2024/01/05 00:51:54;;;;;;;17.23;4.22;;;10.40;90.60;;;;;;5060339;28;20484;-78
2024/01/05 00:54:19;;;;;;;11.98;3.10;;;10.50;90.60;;;;;;5037313;28;20040;-78
2024/01/05 00:56:46;;;;;;;14.27;2.58;;;10.50;90.30;;;;;;5054348;28;20098;-75
2024/01/05 00:59:12;;;;;;;10.63;3.15;;;10.50;90.10;;;;;;5057022;28;20036;-77
2024/01/05 01:01:38;;;;;;;10.30;2.38;;;10.50;90.00;;;;;;5045945;28;20491;-78
2024/01/05 01:04:04;;;;;;;10.10;2.47;;;10.50;89.90;;;;;;5042182;28;20036;-76
2024/01/05 01:06:29;;;;;;;13.38;2.70;;;10.50;89.60;;;;;;5037866;28;20115;-77
2024/01/05 01:08:55;;;;;;;10.15;2.60;;;10.50;89.40;;;;;;5040007;28;20090;-79
2024/01/05 01:11:22;;;;;;;13.00;3.25;;;10.60;89.00;;;;;;5056827;28;20052;-76
2024/01/05 01:13:48;;;;;;;9.55;2.30;;;10.60;89.00;;;;;;5060038;28;20105;-78
2024/01/05 01:16:14;;;;;;;12.32;2.80;;;10.60;89.00;;;;;;5053414;28;20519;-76
2024/01/05 01:18:40;;;;;;;10.45;2.40;;;10.50;88.70;;;;;;5042601;28;20079;-78
2024/01/05 01:21:05;;;;;;;11.13;2.38;;;10.60;88.60;;;;;;5059003;28;20124;-77
2024/01/05 01:23:31;;;;;;;7.97;2.40;;;10.60;88.50;;;;;;5040277;28;20054;-77
2024/01/05 01:25:56;;;;;;;14.48;3.92;;;10.60;88.20;;;;;;5058148;28;20523;-77
2024/01/05 01:28:22;;;;;;;13.32;3.15;;;10.60;88.20;;;;;;5062693;28;20036;-77
2024/01/05 01:30:48;;;;;;;11.68;2.50;;;10.60;88.00;;;;;;5057024;28;20429;-78
2024/01/05 01:33:13;;;;;;;10.70;2.30;;;10.60;87.90;;;;;;5059136;28;20043;-76
2024/01/05 01:35:39;;;;;;;9.82;2.65;;;10.60;87.70;;;;;;5039049;28;20048;-78
2024/01/05 01:38:04;;;;;;;8.85;2.70;;;10.60;87.80;;;;;;5036289;28;20226;-77
2024/01/05 01:40:30;;;;;;;10.18;2.35;;;10.50;87.60;;;;;;5059318;28;20063;-77
2024/01/05 01:42:56;;;;;;;8.23;1.92;;;10.60;87.80;;;;;;5039550;28;20063;-76
2024/01/05 01:45:21;;;;;;;8.43;2.42;;;10.50;87.70;;;;;;5040031;28;20512;-76
2024/01/05 01:47:48;;;;;;;10.07;2.40;;;10.50;87.60;;;;;;5055831;28;20032;-76
2024/01/05 01:50:15;;;;;;;8.57;2.08;;;10.50;87.60;;;;;;5055389;28;20032;-77
2024/01/05 01:52:45;;;;;;;5.78;1.77;;;10.40;87.50;;;;;;5053347;28;20579;-76
2024/01/05 01:55:12;;;;;;;7.07;2.25;;;10.40;87.50;;;;;;5040788;28;20570;-78
2024/01/05 01:57:39;;;;;;;7.63;2.05;;;10.40;87.50;;;;;;5054796;28;20338;-77
2024/01/05 02:00:06;;;;;;;10.45;2.28;;;10.40;87.70;;;;;;5058340;28;20811;-77
2024/01/05 02:02:33;;;;;;;9.18;2.17;;;10.40;87.70;;;;;;5053633;28;20036;-77
2024/01/05 02:04:59;;;;;;;7.80;2.20;;;10.40;87.70;;;;;;5057492;28;20027;-77
2024/01/05 02:07:25;;;;;;;8.02;2.00;;;10.40;86.80;;;;;;5056886;28;20446;-77
2024/01/05 02:09:51;;;;;;;6.85;1.50;;;10.40;86.00;;;;;;5058305;28;20036;-77
2024/01/05 02:12:17;;;;;;;6.65;1.95;;;10.40;85.50;;;;;;5051316;28;20503;-77
2024/01/05 02:14:43;;;;;;;7.68;2.00;;;10.40;85.00;;;;;;5053450;28;20535;-77
2024/01/05 02:17:31;;;;;;;6.68;1.60;;;10.40;84.60;;;;;;5060458;28;20049;-77
2024/01/05 02:19:57;;;;;;;7.53;1.90;;;10.40;84.40;;;;;;5059293;28;20051;-78
2024/01/05 02:22:26;;;;;;;5.65;1.60;;;10.40;84.10;;;;;;5040337;28;20473;-77
2024/01/05 02:24:52;;;;;;;7.35;1.73;;;10.40;84.40;;;;;;5060305;28;20512;-77
2024/01/05 02:27:17;;;;;;;4.78;1.10;;;10.40;84.60;;;;;;5062831;28;20024;-78
2024/01/05 02:29:43;;;;;;;6.93;1.60;;;10.40;84.70;;;;;;5080722;28;20020;-79
2024/01/05 02:32:09;;;;;;;7.13;1.50;;;10.30;85.00;;;;;;5076750;28;20034;-78
2024/01/05 02:34:34;;;;;;;7.13;1.92;;;10.30;85.00;;;;;;5057657;28;20037;-76
2024/01/05 02:37:00;;;;;;;4.93;1.67;;;10.30;84.90;;;;;;5057686;28;20044;-74
2024/01/05 02:39:25;;;;;;;6.35;1.73;;;10.30;84.90;;;;;;5059231;28;20063;-77
2024/01/05 02:41:51;;;;;;;3.33;1.33;;;10.20;84.60;;;;;;5035135;28;20536;-77
2024/01/05 02:44:17;;;;;;;3.65;1.27;;;10.20;84.40;;;;;;5052326;28;20421;-76
2024/01/05 02:46:42;;;;;;;6.97;1.83;;;10.10;83.80;;;;;;5059249;28;20028;-78
2024/01/05 02:49:08;;;;;;;6.25;1.60;;;10.10;83.40;;;;;;5036443;28;20417;-77
2024/01/05 02:51:33;;;;;;;3.20;1.05;;;10.10;82.90;;;;;;5056330;28;20028;-76
2024/01/05 02:53:59;;;;;;;3.45;0.95;;;10.10;83.30;;;;;;5056196;28;20729;-77
2024/01/05 02:56:25;;;;;;;2.63;0.90;;;10.10;83.70;;;;;;5057430;28;20174;-76
2024/01/05 02:58:52;;;;;;;3.50;1.10;;;10.00;84.20;;;;;;5038749;28;20049;-78
2024/01/05 03:01:18;;;;;;;3.55;1.13;;;9.90;84.50;;;;;;5060112;28;20020;-76
2024/01/05 03:03:48;;;;;;;2.28;0.90;;;9.90;85.30;;;;;;5040868;28;20033;-76
2024/01/05 03:06:18;;;;;;;4.38;1.15;;;9.70;85.80;;;;;;5054731;28;20335;-77
2024/01/05 03:08:44;;;;;;;3.67;1.27;;;9.50;86.10;;;;;;5058096;28;20074;-78
2024/01/05 03:11:10;;;;;;;3.22;1.10;;;9.50;86.00;;;;;;5057392;28;20030;-79
2024/01/05 03:13:36;;;;;;;2.65;0.90;;;9.50;85.70;;;;;;5059356;28;20419;-77
2024/01/05 03:16:02;;;;;;;5.38;1.33;;;9.50;85.40;;;;;;5056728;28;20448;-76
2024/01/05 03:18:28;;;;;;;4.72;1.05;;;9.50;85.10;;;;;;5058582;28;20350;-76
2024/01/05 03:20:54;;;;;;;4.35;1.10;;;9.40;84.80;;;;;;5052736;28;20035;-77
2024/01/05 03:23:19;;;;;;;4.28;1.20;;;9.50;84.90;;;;;;5035552;28;20189;-77
2024/01/05 03:25:45;;;;;;;3.60;0.98;;;9.40;84.80;;;;;;5053717;28;20373;-77
2024/01/05 03:28:12;;;;;;;2.97;1.10;;;9.40;85.00;;;;;;5034432;28;20028;-77
2024/01/05 03:30:38;;;;;;;2.30;1.17;;;9.40;85.40;;;;;;5036552;28;20024;-76
2024/01/05 03:33:04;;;;;;;4.50;1.20;;;9.30;86.10;;;;;;5036589;28;20159;-78
2024/01/05 03:35:30;;;;;;;1.98;1.15;;;9.20;86.80;;;;;;5054513;28;20048;-75
2024/01/05 03:37:56;;;;;;;1.45;1.08;;;9.10;87.20;;;;;;5057419;28;20111;-77
2024/01/05 03:40:22;;;;;;;4.47;1.67;;;9.00;87.60;;;;;;5041349;28;20126;-78
2024/01/05 03:42:48;;;;;;;3.00;0.98;;;9.00;87.90;;;;;;5055297;28;20033;-78
2024/01/05 03:45:14;;;;;;;2.60;1.10;;;8.90;88.10;;;;;;5038579;28;20028;-75
2024/01/05 03:47:40;;;;;;;3.22;1.00;;;8.80;87.80;;;;;;5052442;28;20349;-76
2024/01/05 03:50:06;;;;;;;3.38;1.20;;;8.70;88.00;;;;;;5053015;28;20024;-75
2024/01/05 03:52:32;;;;;;;3.85;1.13;;;8.70;88.30;;;;;;5028792;28;20617;-77
2024/01/05 03:54:58;;;;;;;3.03;1.15;;;8.60;88.50;;;;;;5042194;28;20024;-75
2024/01/05 03:57:24;;;;;;;4.68;1.13;;;8.60;88.60;;;;;;5052504;28;20078;-76
2024/01/05 03:59:52;;;;;;;2.13;1.00;;;8.60;88.80;;;;;;5038332;28;20091;-77
2024/01/05 04:02:18;;;;;;;2.33;1.13;;;8.50;89.00;;;;;;5055313;28;20040;-77
2024/01/05 04:04:44;;;;;;;4.20;1.17;;;8.50;89.10;;;;;;5054827;28;20022;-77
2024/01/05 04:07:09;;;;;;;2.08;0.90;;;8.50;89.40;;;;;;5054861;28;20099;-78
2024/01/05 04:09:35;;;;;;;2.67;1.00;;;8.50;89.60;;;;;;5038815;28;20033;-76
2024/01/05 04:12:01;;;;;;;4.38;1.55;;;8.40;90.00;;;;;;5035164;28;20024;-74
2024/01/05 04:14:26;;;;;;;3.90;1.13;;;8.30;90.00;;;;;;5040914;28;20108;-76
2024/01/05 04:16:52;;;;;;;2.22;0.90;;;8.30;90.00;;;;;;5061505;28;20546;-78
2024/01/05 04:19:17;;;;;;;2.83;1.20;;;8.30;89.90;;;;;;5041818;28;20083;-77
2024/01/05 04:21:43;;;;;;;1.73;1.00;;;8.30;89.50;;;;;;5056171;28;20074;-76
2024/01/05 04:24:09;;;;;;;3.92;1.17;;;8.30;89.50;;;;;;5051295;28;20045;-76
2024/01/05 04:26:35;;;;;;;3.47;1.20;;;8.30;89.70;;;;;;5040299;28;20090;-76
2024/01/05 04:29:01;;;;;;;1.70;1.08;;;8.30;89.90;;;;;;5054777;28;20044;-76
2024/01/05 04:31:27;;;;;;;3.70;1.00;;;8.30;90.00;;;;;;5051425;28;20030;-76
2024/01/05 04:33:54;;;;;;;3.83;1.20;;;8.30;89.90;;;;;;5056556;28;20032;-74
2024/01/05 04:36:20;;;;;;;4.82;1.02;;;8.30;89.80;;;;;;5057025;28;20033;-76
2024/01/05 04:38:46;;;;;;;3.67;1.08;;;8.30;89.50;;;;;;5057649;28;20021;-78
2024/01/05 04:41:14;;;;;;;3.28;1.38;;;8.20;89.40;;;;;;5055734;28;20016;-77
2024/01/05 04:43:39;;;;;;;3.72;1.27;;;8.30;89.30;;;;;;5032939;28;20094;-77
2024/01/05 04:46:06;;;;;;;5.60;1.25;;;8.30;89.10;;;;;;5055748;28;20040;-78
2024/01/05 04:48:32;;;;;;;5.10;1.15;;;8.30;88.90;;;;;;5050746;28;20119;-77
2024/01/05 04:50:58;;;;;;;5.10;1.60;;;8.30;88.50;;;;;;5056087;28;20760;-76
2024/01/05 04:53:23;;;;;;;5.63;1.40;;;8.30;88.70;;;;;;5057513;28;20441;-76
2024/01/05 04:55:49;;;;;;;4.20;1.30;;;8.30;88.80;;;;;;5040434;28;20029;-75
2024/01/05 04:58:15;;;;;;;4.47;1.20;;;8.30;88.90;;;;;;5057972;28;20044;-77
2024/01/05 05:00:40;;;;;;;5.90;1.58;;;8.20;88.80;;;;;;5059091;28;20077;-74
2024/01/05 05:03:06;;;;;;;3.17;1.30;;;8.20;89.00;;;;;;5058167;28;20489;-75
2024/01/05 05:05:31;;;;;;;5.93;1.55;;;8.20;89.40;;;;;;5045108;28;20059;-75
2024/01/05 05:07:57;;;;;;;7.68;1.58;;;8.10;89.70;;;;;;5056423;28;20117;-74
2024/01/05 05:10:23;;;;;;;5.13;1.48;;;8.10;89.80;;;;;;5048471;28;20482;-73
2024/01/05 05:12:49;;;;;;;4.38;1.45;;;8.10;90.10;;;;;;5042020;28;20519;-76
2024/01/05 05:15:14;;;;;;;10.57;2.58;;;8.00;90.40;;;;;;5042650;28;20098;-77
2024/01/05 05:17:40;;;;;;;5.13;1.50;;;7.90;90.90;;;;;;5054800;28;20485;-76
2024/01/05 05:20:06;;;;;;;6.60;1.33;;;7.80;91.30;;;;;;5037736;28;20046;-75
2024/01/05 05:22:33;;;;;;;8.02;1.80;;;7.80;91.70;;;;;;5057557;28;20423;-76
2024/01/05 05:24:59;;;;;;;5.05;1.63;;;7.80;92.00;;;;;;5056075;28;20355;-77
2024/01/05 05:27:24;;;;;;;8.38;1.80;;;7.70;92.20;;;;;;5038544;28;20015;-76
2024/01/05 05:29:50;;;;;;;9.65;1.50;;;7.60;92.30;;;;;;5039816;28;20020;-78
2024/01/05 05:32:16;;;;;;;5.88;1.50;;;7.70;92.20;;;;;;5058992;28;20152;-77
2024/01/05 05:34:44;;;;;;;6.65;1.58;;;7.60;92.30;;;;;;5056324;28;20431;-76
2024/01/05 05:37:10;;;;;;;6.85;1.90;;;7.60;92.50;;;;;;5056881;28;20047;-76
2024/01/05 05:39:36;;;;;;;6.72;1.60;;;7.50;92.70;;;;;;5055420;28;20523;-77
2024/01/05 05:42:02;;;;;;;10.35;1.92;;;7.50;92.90;;;;;;5040634;28;20491;-77
2024/01/05 05:44:28;;;;;;;4.82;1.40;;;7.50;92.90;;;;;;5042312;28;20568;-78
2024/01/05 05:46:54;;;;;;;4.65;1.45;;;7.60;92.90;;;;;;5052505;28;20029;-78
2024/01/05 05:49:20;;;;;;;5.70;1.50;;;7.50;93.00;;;;;;5035710;28;20516;-76
2024/01/05 05:51:46;;;;;;;5.65;1.50;;;7.40;93.00;;;;;;5059691;28;20027;-77
2024/01/05 05:54:12;;;;;;;7.70;2.03;;;7.40;92.90;;;;;;5049991;28;20052;-75
2024/01/05 05:56:39;;;;;;;7.18;1.60;;;7.40;92.90;;;;;;5056267;28;20020;-77
2024/01/05 05:59:05;;;;;;;8.50;1.73;;;7.40;93.10;;;;;;5037154;28;20115;-75
2024/01/05 06:01:30;;;;;;;4.55;1.60;;;7.40;93.10;;;;;;5041904;28;20479;-75
2024/01/05 06:03:56;;;;;;;4.03;1.30;;;7.30;93.30;;;;;;5040195;28;20024;-77
2024/01/05 06:06:23;;;;;;;4.57;1.30;;;7.30;93.60;;;;;;5040849;28;20391;-74
2024/01/05 06:08:51;;;;;;;4.90;1.33;;;7.20;93.70;;;;;;5054532;28;20082;-77
2024/01/05 06:11:17;;;;;;;5.97;1.40;;;7.20;93.70;;;;;;5059976;28;20061;-78
2024/01/05 06:13:43;;;;;;;4.30;1.73;;;7.20;93.90;;;;;;5051387;28;20227;-75
2024/01/05 06:16:09;;;;;;;6.53;1.42;;;7.20;94.00;;;;;;5029292;28;20081;-77
2024/01/05 06:18:35;;;;;;;5.93;1.55;;;7.20;94.00;;;;;;5020375;28;20068;-77
2024/01/05 06:21:01;;;;;;;4.57;1.38;;;7.10;94.20;;;;;;5019579;28;20022;-75
2024/01/05 06:23:27;;;;;;;4.55;1.75;;;7.10;94.20;;;;;;5017442;28;20314;-76
2024/01/05 06:25:52;;;;;;;5.18;1.60;;;7.10;94.30;;;;;;5021498;28;20030;-75
2024/01/05 06:28:18;;;;;;;2.03;1.40;;;7.00;94.20;;;;;;5013587;28;20500;-76
2024/01/05 06:30:43;;;;;;;4.28;1.08;;;7.10;94.50;;;;;;5017945;28;20454;-77
2024/01/05 06:33:09;;;;;;;3.03;1.58;;;7.00;94.60;;;;;;5010841;28;20380;-76
2024/01/05 06:35:35;;;;;;;3.60;1.38;;;6.90;94.80;;;;;;5017270;28;20034;-76
2024/01/05 06:38:00;;;;;;;3.88;1.85;;;7.00;95.00;;;;;;5020673;28;20520;-78
2024/01/05 06:40:26;;;;;;;4.10;1.50;;;6.90;95.00;;;;;;5017061;28;20021;-75
2024/01/05 06:42:52;;;;;;;4.20;1.70;;;7.00;95.20;;;;;;5008476;28;20385;-77
2024/01/05 06:45:18;;;;;;;2.75;1.40;;;6.90;95.40;;;;;;5019042;28;20093;-75
2024/01/05 06:47:43;;;;;;;4.88;1.73;;;6.90;95.50;;;;;;5010563;28;20052;-75
2024/01/05 06:50:09;;;;;;;5.10;2.13;;;6.90;95.70;;;;;;5018423;28;20030;-75
2024/01/05 06:52:35;;;;;;;5.10;2.45;;;6.90;95.70;;;;;;5018515;28;20041;-75
2024/01/05 06:55:00;;;;;;;4.97;2.30;;;6.90;95.90;;;;;;5015034;28;20022;-74
2024/01/05 06:57:29;;;;;;;6.03;3.30;;;6.90;96.10;;;;;;5014378;28;20041;-74
2024/01/05 06:59:54;;;;;;;4.32;1.98;;;7.00;96.20;;;;;;5019895;28;20113;-76
2024/01/05 07:02:20;;;;;;;5.80;2.33;;;6.90;96.20;;;;;;5015978;28;20100;-75
2024/01/05 07:04:46;;;;;;;6.07;2.92;;;6.90;96.40;;;;;;5018304;28;20778;-74
2024/01/05 07:07:11;;;;;;;4.32;2.60;;;6.90;96.40;;;;;;5013946;28;20026;-75
2024/01/05 07:09:37;;;;;;;3.78;2.28;;;6.90;96.50;;;;;;5014411;28;20502;-76
2024/01/05 07:12:03;;;;;;;5.60;2.70;;;7.00;96.40;;;;;;5014359;28;20057;-76
2024/01/05 07:14:29;;;;;;;4.03;2.17;;;7.00;96.40;;;;;;5013565;28;20068;-76
2024/01/05 07:16:58;;;;;;;3.97;2.10;;;6.90;96.40;;;;;;5034712;28;20140;-77
2024/01/05 07:19:24;;;;;;;5.28;2.55;;;6.90;96.20;;;;;;5030692;28;20433;-75
2024/01/05 07:21:50;;;;;;;4.50;2.30;;;6.90;96.30;;;;;;5031801;28;20104;-75
2024/01/05 07:24:17;;;;;;;6.15;2.65;;;6.90;96.10;;;;;;5052848;28;20047;-76
2024/01/05 07:26:43;;;;;;;5.43;2.67;;;6.90;96.10;;;;;;5057269;28;20025;-76
2024/01/05 07:29:09;;;;;;;6.00;3.20;;;6.90;96.10;;;;;;5057336;28;20031;-77
2024/01/05 07:31:34;;;;;;;5.95;2.90;;;6.90;96.00;;;;;;5044188;28;20040;-76
2024/01/05 07:34:01;;;;;;;6.20;2.72;;;6.90;95.90;;;;;;5032879;28;20400;-78
2024/01/05 07:36:26;;;;;;;4.53;2.30;;;6.80;95.60;;;;;;5032184;28;20423;-77
2024/01/05 07:38:52;;;;;;;6.88;2.83;;;6.80;95.40;;;;;;5038128;28;20057;-76
2024/01/05 07:41:18;;;;;;;6.28;2.78;;;6.80;95.40;;;;;;5035838;28;20066;-77
2024/01/05 07:43:44;;;;;;;6.60;2.63;;;6.90;95.20;;;;;;5034829;28;20520;-77
2024/01/05 07:46:10;;;;;;;7.80;2.78;;;6.90;95.10;;;;;;5032169;28;20025;-76
2024/01/05 07:48:39;;;;;;;6.07;2.53;;;6.90;95.00;;;;;;5030286;28;20033;-78
2024/01/05 07:51:05;;;;;;;4.40;2.30;;;6.80;94.80;;;;;;5035277;28;20044;-79
2024/01/05 07:53:31;;;;;;;6.13;2.83;;;6.80;94.90;;;;;;5036574;28;20049;-76
2024/01/05 07:55:59;;;;;;;3.88;2.08;;;6.80;94.80;;;;;;5038177;28;20033;-78
2024/01/05 07:58:25;;;;;;;5.82;2.40;;;6.80;94.60;;;;;;5033164;28;20033;-77
2024/01/05 08:00:51;;;;;;;5.70;2.40;;;6.80;94.40;;;;;;5033686;28;20029;-75
2024/01/05 08:03:16;;;;;;;5.50;2.22;;;6.80;94.10;;;;;;5035870;28;20469;-76
2024/01/05 08:05:42;;;;;;;3.42;1.80;;;6.80;94.10;;;;;;5036478;28;20096;-75
2024/01/05 08:08:07;;;;;;;3.53;2.05;;;6.80;94.00;;;;;;5031645;28;20603;-76
2024/01/05 08:10:33;;;;;;;4.78;1.90;;;6.80;93.90;;;;;;5037232;28;20033;-76
2024/01/05 08:13:01;;;;;;;3.20;1.77;;;6.80;94.00;;;;;;5031912;28;20498;-74
2024/01/05 08:15:27;;;;;;;7.05;2.10;;;6.80;94.10;;;;;;5027199;28;20041;-75
2024/01/05 08:17:54;;;;;;;5.30;2.05;;;6.90;94.20;;;;;;5007145;28;20030;-74
2024/01/05 08:20:20;;;;;;;4.00;2.00;;;6.90;94.00;;;;;;5008798;28;20060;-74
2024/01/05 08:22:45;;;;;;;4.63;1.88;;;6.80;94.10;;;;;;5008537;28;20045;-75
2024/01/05 08:25:14;;;;;;;5.68;2.42;;;6.80;94.10;;;;;;5012652;28;20122;-75
2024/01/05 08:27:39;;;;;;;7.45;2.80;;;6.90;94.10;;;;;;5016127;28;20075;-74
2024/01/05 08:30:07;;;;;;;5.18;2.80;;;6.80;94.20;;;;;;5033142;28;20025;-74
2024/01/05 08:32:33;;;;;;;8.20;2.78;;;6.90;94.20;;;;;;5035793;28;20097;-74
2024/01/05 08:34:59;;;;;;;5.82;2.85;;;6.80;94.50;;;;;;5035454;28;20079;-74
2024/01/05 08:37:25;;;;;;;5.60;2.20;;;6.70;94.70;;;;;;5032605;28;20029;-73
2024/01/05 08:39:51;;;;;;;6.60;2.70;;;6.80;94.70;;;;;;5035850;28;20537;-73
2024/01/05 08:42:16;;;;;;;7.18;3.10;;;6.80;94.80;;;;;;5032418;28;20029;-75
2024/01/05 08:44:43;;;;;;;6.53;3.25;;;6.80;94.90;;;;;;5034814;28;20183;-73
2024/01/05 08:47:09;;;;;;;6.93;3.05;;;6.80;95.00;;;;;;5036565;28;20013;-73
2024/01/05 08:49:34;;;;;;;5.97;3.30;;;6.80;95.10;;;;;;5035786;28;20534;-76
2024/01/05 08:52:00;;;;;;;7.57;3.58;;;6.80;95.20;;;;;;5028673;28;20052;-73
2024/01/05 08:54:26;;;;;;;7.93;4.10;;;6.80;95.20;;;;;;5015142;28;20096;-73
2024/01/05 08:56:52;;;;;;;8.23;4.43;;;6.90;95.20;;;;;;5013055;28;20025;-75
2024/01/05 08:59:19;;;;;;;8.85;4.32;;;6.90;95.30;;;;;;5010734;28;20438;-75
2024/01/05 09:01:44;;;;;;;7.35;3.97;;;6.90;95.40;;;;;;5014141;28;20025;-75
2024/01/05 09:04:10;;;;;;;6.30;3.38;;;6.90;95.40;;;;;;5010569;28;20041;-75
2024/01/05 09:06:39;;;;;;;8.95;4.00;;;6.80;95.40;;;;;;5015773;28;20051;-77
2024/01/05 09:09:05;;;;;;;8.23;4.30;;;6.90;95.50;;;;;;5012667;28;20041;-75
2024/01/05 09:11:30;;;;;;;9.43;5.15;;;6.90;95.60;;;;;;5010392;28;20587;-75
2024/01/05 09:13:56;;;;;;;11.25;5.20;;;6.90;95.60;;;;;;5010812;28;20041;-76
2024/01/05 09:16:22;;;;;;;9.98;4.70;;;6.90;95.70;;;;;;5016085;28;20049;-80
2024/01/05 09:18:49;;;;;;;6.47;3.97;;;6.90;95.70;;;;;;5017907;28;20033;-75
2024/01/05 09:21:15;;;;;;;7.75;4.57;;;6.90;95.80;;;;;;5012704;28;20370;-76
2024/01/05 09:23:41;;;;;;;6.18;3.78;;;6.90;95.90;;;;;;5014567;28;20493;-75
2024/01/05 09:26:16;;;;;;;10.02;3.35;;;6.90;95.80;;;;;;5010667;28;20029;-77
2024/01/05 09:28:43;;;;;;;6.47;3.78;;;6.90;95.70;;;;;;5012764;28;20026;-77
2024/01/05 09:31:12;;;;;;;6.22;3.85;;;7.00;95.70;;;;;;5015856;28;20473;-76
2024/01/05 09:33:38;;;;;;;7.15;3.97;;;7.00;95.60;;;;;;5017031;28;20044;-77
2024/01/05 09:36:04;;;;;;;9.35;4.47;;;7.00;95.70;;;;;;5017695;28;20467;-77
2024/01/05 09:38:30;;;;;;;9.05;4.55;;;7.00;95.70;;;;;;5006976;28;20359;-77
2024/01/05 09:40:56;;;;;;;8.20;4.68;;;7.00;95.40;;;;;;5015092;28;20400;-78
2024/01/05 09:43:24;;;;;;;9.63;5.90;;;7.10;95.40;;;;;;5019913;28;20367;-79
2024/01/05 09:45:51;;;;;;;7.93;5.25;;;7.10;95.50;;;;;;5024995;28;21184;-77
2024/01/05 09:48:22;;;;;;;10.95;6.20;;;7.10;95.40;;;;;;5019639;28;20319;-75
2024/01/05 09:50:52;;;;;;;12.48;6.35;;;7.20;95.60;;;;;;5014034;28;20022;-76
2024/01/05 09:53:19;;;;;;;12.30;6.55;;;7.30;95.40;;;;;;5021483;28;20499;-77
2024/01/05 09:55:49;;;;;;;12.52;6.18;;;7.30;95.40;;;;;;5018514;28;20022;-77
2024/01/05 09:58:18;;;;;;;13.38;6.25;;;7.40;95.20;;;;;;5016619;28;20572;-75
2024/01/05 10:00:48;;;;;;;14.60;6.97;;;7.40;95.20;;;;;;5014637;28;20104;-75
2024/01/05 10:03:23;;;;;;;13.60;7.47;;;7.40;95.10;;;;;;5031006;28;20041;-76
2024/01/05 10:05:56;;;;;;;15.63;8.10;;;7.40;95.10;;;;;;5014290;28;20371;-77
2024/01/05 10:08:22;;;;;;;10.55;7.28;;;7.40;95.00;;;;;;5015386;28;20112;-75
2024/01/05 10:10:53;;;;;;;14.25;7.53;;;7.40;95.00;;;;;;5015296;28;20036;-76
2024/01/05 10:13:18;;;;;;;13.88;8.07;;;7.50;95.00;;;;;;5014239;28;20052;-74
2024/01/05 10:16:00;;;;;;;15.30;8.30;;;7.40;94.80;;;;;;5012671;28;20049;-76
2024/01/05 10:18:28;;;;;;;14.32;8.00;;;7.50;94.90;;;;;;5010450;28;20385;-74
2024/01/05 10:20:55;;;;;;;14.98;8.40;;;7.50;94.80;;;;;;5009119;28;20236;-76
2024/01/05 10:23:21;;;;;;;15.25;9.60;;;7.40;94.70;;;;;;5021777;28;20049;-77
2024/01/05 10:25:47;;;;;;;12.70;7.78;;;7.50;94.70;;;;;;5037773;28;20500;-76
2024/01/05 10:28:23;;;;;;;14.57;9.07;;;7.40;94.50;;;;;;5019105;28;20042;-76
2024/01/05 10:30:48;;;;;;;15.98;8.30;;;7.40;94.70;;;;;;5020516;28;20045;-76
2024/01/05 10:33:16;;;;;;;15.10;8.35;;;7.50;94.90;;;;;;5013851;28;20091;-77
2024/01/05 10:35:42;;;;;;;13.13;8.52;;;7.50;94.80;;;;;;5012743;28;20061;-77
2024/01/05 10:38:14;;;;;;;15.80;8.25;;;7.50;94.60;;;;;;5013668;28;20033;-76
2024/01/05 10:40:40;;;;;;;12.75;8.00;;;7.60;94.60;;;;;;5014305;28;20626;-75
2024/01/05 10:43:14;;;;;;;12.60;7.88;;;7.60;94.10;;;;;;5014287;28;20120;-79
2024/01/05 10:45:42;;;;;;;14.10;7.88;;;7.60;94.20;;;;;;5011863;28;20014;-75
2024/01/05 10:48:10;;;;;;;13.95;7.93;;;7.60;93.90;;;;;;5014404;28;20037;-78
2024/01/05 10:50:37;;;;;;;10.60;7.55;;;7.60;93.90;;;;;;5011133;28;20489;-78
2024/01/05 10:53:04;;;;;;;12.45;8.60;;;7.70;93.60;;;;;;5014289;28;20030;-78
2024/01/05 10:55:33;;;;;;;16.27;8.40;;;7.70;93.50;;;;;;5014566;28;20107;-75
2024/01/05 10:57:59;;;;;;;14.35;8.15;;;7.70;93.40;;;;;;5013946;28;20034;-76
2024/01/05 11:00:25;;;;;;;15.35;7.82;;;7.70;93.50;;;;;;5017456;28;20156;-77
2024/01/05 11:03:04;;;;;;;12.40;7.63;;;7.70;93.50;;;;;;5012604;28;20030;-74
2024/01/05 11:05:31;;;;;;;15.07;7.68;;;7.70;93.70;;;;;;5013938;28;20091;-74
2024/01/05 11:08:02;;;;;;;13.85;7.55;;;7.80;93.50;;;;;;5007587;28;20036;-74
2024/01/05 11:10:31;;;;;;;11.68;7.20;;;7.80;93.60;;;;;;5016524;28;20025;-74
2024/01/05 11:13:15;;;;;;;12.77;6.68;;;7.70;93.30;;;;;;5013801;28;20084;-75
2024/01/05 11:15:59;;;;;;;13.20;7.38;;;7.80;93.30;;;;;;5012862;28;20369;-76
2024/01/05 11:18:34;;;;;;;9.93;6.47;;;7.70;93.20;;;;;;5015225;28;20052;-77
2024/01/05 11:21:02;;;;;;;14.25;6.88;;;7.80;93.50;;;;;;5017603;28;20098;-76
2024/01/05 11:23:31;;;;;;;10.52;6.78;;;7.80;93.40;;;;;;5009889;28;20038;-77
2024/01/05 11:25:56;;;;;;;12.40;6.22;;;7.70;93.50;;;;;;5016906;28;20021;-73
2024/01/05 11:28:36;;;;;;;9.68;5.82;;;7.70;93.20;;;;;;5008375;28;20051;-75
2024/01/05 11:31:03;;;;;;;10.07;6.00;;;7.60;93.10;;;;;;5002314;28;20044;-76
2024/01/05 11:33:49;;;;;;;9.90;5.35;;;7.70;93.00;;;;;;5010425;28;20034;-74
2024/01/05 11:36:54;;;;;;;11.82;5.32;;;7.60;92.80;;;;;;5006144;28;20079;-75
2024/01/05 11:39:43;;;;;;;10.05;4.53;;;7.60;92.80;;;;;;4950839;28;20043;-74
2024/01/05 11:42:30;;;;;;;7.10;4.38;;;7.60;92.20;;;;;;4957902;28;20031;-75
2024/01/05 11:44:57;;;;;;;8.57;4.05;;;7.60;91.80;;;;;;4993236;28;20066;-76
2024/01/05 11:47:45;;;;;;;8.75;4.15;;;7.60;91.70;;;;;;5007708;28;20061;-75
2024/01/05 11:50:26;;;;;;;8.98;4.20;;;7.60;91.70;;;;;;5008790;28;20504;-74
2024/01/05 11:53:08;;;;;;;6.93;3.72;;;7.70;92.00;;;;;;5002452;28;20083;-76
2024/01/05 11:55:39;;;;;;;8.57;3.92;;;7.60;91.80;;;;;;5004035;28;22337;-74
2024/01/05 11:58:15;;;;;;;9.00;4.72;;;7.60;92.00;;;;;;4999738;28;20116;-76
2024/01/05 12:00:42;;;;;;;7.93;4.47;;;7.60;92.10;;;;;;5002023;28;20034;-76
2024/01/05 12:03:08;;;;;;;14.23;5.90;;;7.60;92.30;;;;;;5008931;28;20048;-76
2024/01/05 12:05:34;;;;;;;13.23;8.07;;;7.70;92.50;;;;;;5006619;28;20025;-74
2024/01/05 12:08:00;;;;;;;12.52;6.10;;;7.70;92.70;;;;;;5005921;28;20402;-75
2024/01/05 12:10:29;;;;;;;14.77;6.00;;;7.80;92.50;;;;;;5013142;28;20029;-75
2024/01/05 12:12:55;;;;;;;11.18;5.50;;;7.70;92.70;;;;;;5013882;28;20029;-75
2024/01/05 12:15:22;;;;;;;10.15;6.38;;;7.70;92.80;;;;;;5018719;28;20037;-76
2024/01/05 12:17:48;;;;;;;10.38;6.00;;;7.60;92.70;;;;;;5042098;28;20033;-75
2024/01/05 12:20:15;;;;;;;11.82;6.30;;;7.70;92.90;;;;;;5060500;28;20024;-76
2024/01/05 12:22:44;;;;;;;13.38;6.03;;;7.80;92.80;;;;;;5036891;28;20533;-75
2024/01/05 12:25:10;;;;;;;12.25;6.00;;;7.80;92.60;;;;;;5053175;28;21817;-76
2024/01/05 12:27:40;;;;;;;10.90;5.82;;;7.80;92.70;;;;;;5066123;28;20092;-77
2024/01/05 12:30:12;;;;;;;11.13;6.13;;;7.80;92.60;;;;;;5086722;28;20020;-75
2024/01/05 12:32:38;;;;;;;11.13;5.72;;;7.90;92.20;;;;;;5047956;28;20460;-76
2024/01/05 12:35:05;;;;;;;11.98;6.28;;;7.90;92.00;;;;;;5052374;28;20029;-76
2024/01/05 12:37:34;;;;;;;11.00;6.13;;;7.90;91.70;;;;;;5043181;28;20067;-77
2024/01/05 12:40:10;;;;;;;11.73;5.93;;;7.90;91.90;;;;;;5041241;28;20047;-75
2024/01/05 12:42:39;;;;;;;10.77;5.68;;;7.90;91.80;;;;;;5032009;28;20044;-76
2024/01/05 12:45:06;;;;;;;11.65;5.80;;;7.90;91.90;;;;;;5061697;28;20032;-77
2024/01/05 12:47:33;;;;;;;10.23;5.20;;;7.90;92.00;;;;;;5042377;28;20055;-75
2024/01/05 12:49:59;;;;;;;9.95;4.38;;;7.80;91.90;;;;;;5062764;28;20063;-74